createdAt,value
2023-05-08T00:02:18.670Z,2.60
2023-05-08T00:04:45.431Z,2.40
2023-05-08T00:07:12.175Z,2.50
2023-05-08T00:09:39.250Z,2.00
2023-05-08T00:12:05.992Z,2.17
2023-05-08T00:14:32.879Z,2.20
2023-05-08T00:16:59.633Z,2.33
2023-05-08T00:19:26.292Z,2.40
2023-05-08T00:21:52.969Z,2.20
2023-05-08T00:24:19.640Z,2.10
2023-05-08T00:26:46.540Z,2.17
2023-05-08T00:29:13.191Z,2.37
2023-05-08T00:31:39.874Z,2.20
2023-05-08T00:34:06.556Z,2.10
2023-05-08T00:36:33.177Z,1.90
2023-05-08T00:38:59.842Z,2.37
2023-05-08T00:41:26.706Z,1.97
2023-05-08T00:43:53.365Z,2.00
2023-05-08T00:46:20.237Z,2.30
2023-05-08T00:48:47.350Z,1.80
2023-05-08T00:51:15.057Z,2.00
2023-05-08T00:53:43.248Z,2.10
2023-05-08T00:56:11.999Z,2.07
2023-05-08T00:58:38.898Z,1.97
2023-05-08T01:01:06.109Z,2.00
2023-05-08T01:03:34.149Z,1.67
2023-05-08T01:06:02.451Z,1.90
2023-05-08T01:08:29.512Z,1.63
2023-05-08T01:11:23.863Z,1.87
2023-05-08T01:14:14.514Z,1.70
2023-05-08T01:16:48.098Z,1.70
2023-05-08T01:19:32.838Z,1.90
2023-05-08T01:22:10.171Z,1.80
2023-05-08T01:25:14.550Z,1.87
2023-05-08T01:28:39.865Z,1.83
2023-05-08T01:31:18.607Z,1.70
2023-05-08T01:34:00.952Z,1.60
2023-05-08T01:36:31.306Z,1.60
2023-05-08T01:39:19.275Z,1.57
2023-05-08T01:41:51.241Z,1.70
2023-05-08T01:44:21.277Z,1.90
2023-05-08T01:46:50.219Z,1.70
2023-05-08T01:49:25.512Z,2.00
2023-05-08T01:52:03.423Z,1.93
2023-05-08T01:54:36.473Z,1.70
2023-05-08T01:57:04.302Z,1.63
2023-05-08T01:59:31.482Z,1.70
2023-05-08T02:01:59.130Z,1.73
2023-05-08T02:04:26.437Z,1.90
2023-05-08T02:06:53.890Z,1.80
2023-05-08T02:09:22.628Z,1.77
2023-05-08T02:11:49.916Z,2.00
2023-05-08T02:14:19.867Z,1.63
2023-05-08T02:16:48.096Z,2.00
2023-05-08T02:19:16.601Z,2.00
2023-05-08T02:21:44.499Z,1.87
2023-05-08T02:24:11.921Z,2.20
2023-05-08T02:26:39.809Z,1.67
2023-05-08T02:29:06.984Z,2.20
2023-05-08T02:31:34.086Z,1.80
2023-05-08T02:34:01.042Z,1.80
2023-05-08T02:36:30.854Z,1.87
2023-05-08T02:38:59.281Z,1.83
2023-05-08T02:41:29.924Z,1.93
2023-05-08T02:43:57.047Z,1.97
2023-05-08T02:47:02.580Z,1.70
2023-05-08T02:49:33.930Z,1.87
2023-05-08T02:52:07.469Z,2.00
2023-05-08T02:54:44.255Z,1.97
2023-05-08T02:57:23.315Z,1.90
2023-05-08T03:00:10.906Z,1.90
2023-05-08T03:02:53.375Z,2.07
2023-05-08T03:05:30.499Z,1.80
2023-05-08T03:08:00.743Z,1.70
2023-05-08T03:10:32.503Z,2.00
2023-05-08T03:13:01.115Z,2.10
2023-05-08T03:15:46.035Z,1.70
2023-05-08T03:18:19.195Z,2.00
2023-05-08T03:20:48.377Z,1.77
2023-05-08T03:23:16.152Z,2.03
2023-05-08T03:25:43.744Z,1.90
2023-05-08T03:28:10.910Z,1.83
2023-05-08T03:30:38.515Z,1.67
2023-05-08T03:33:09.142Z,1.97
2023-05-08T03:35:39.659Z,1.77
2023-05-08T03:38:07.843Z,1.80
2023-05-08T03:40:44.752Z,2.00
2023-05-08T03:43:11.870Z,1.70
2023-05-08T03:45:40.534Z,1.80
2023-05-08T03:48:08.618Z,2.13
2023-05-08T03:50:36.867Z,2.07
2023-05-08T03:53:04.071Z,1.73
2023-05-08T03:55:31.977Z,1.77
2023-05-08T03:58:08.825Z,1.90
2023-05-08T04:01:26.376Z,2.00
2023-05-08T04:04:12.232Z,1.80
2023-05-08T04:06:52.461Z,2.00
2023-05-08T04:09:45.714Z,1.70
2023-05-08T04:12:21.011Z,2.10
2023-05-08T04:14:57.085Z,1.80
2023-05-08T04:17:32.237Z,1.87
2023-05-08T04:20:03.194Z,2.00
2023-05-08T04:22:32.348Z,2.20
2023-05-08T04:25:03.080Z,2.00
2023-05-08T04:27:30.852Z,2.23
2023-05-08T04:29:58.216Z,1.97
2023-05-08T04:32:25.723Z,2.00
2023-05-08T04:34:52.819Z,2.00
2023-05-08T04:37:28.240Z,2.00
2023-05-08T04:39:54.925Z,2.00
2023-05-08T04:42:21.727Z,2.23
2023-05-08T04:44:48.377Z,1.90
2023-05-08T04:47:15.142Z,2.30
2023-05-08T04:49:42.113Z,2.27
2023-05-08T04:52:08.905Z,1.90
2023-05-08T04:54:35.677Z,2.27
2023-05-08T04:57:02.578Z,1.93
2023-05-08T04:59:29.655Z,2.00
2023-05-08T05:01:57.201Z,2.17
2023-05-08T05:04:24.340Z,2.00
2023-05-08T05:06:51.048Z,2.10
2023-05-08T05:09:17.693Z,2.40
2023-05-08T05:11:44.628Z,2.37
2023-05-08T05:14:11.430Z,2.17
2023-05-08T05:16:38.248Z,2.10
2023-05-08T05:19:05.077Z,2.40
2023-05-08T05:21:31.859Z,2.23
2023-05-08T05:23:58.789Z,2.00
2023-05-08T05:26:26.017Z,2.10
2023-05-08T05:28:52.733Z,2.37
2023-05-08T05:31:19.517Z,2.33
2023-05-08T05:33:46.719Z,2.43
2023-05-08T05:36:13.367Z,2.37
2023-05-08T05:38:40.037Z,2.30
2023-05-08T05:41:06.687Z,2.23
2023-05-08T05:43:34.160Z,2.40
2023-05-08T05:46:05.373Z,2.20
2023-05-08T05:48:32.400Z,1.90
2023-05-08T05:50:59.183Z,2.13
2023-05-08T05:53:25.979Z,2.20
2023-05-08T05:55:53.058Z,2.20
2023-05-08T05:58:20.207Z,2.37
2023-05-08T06:00:47.692Z,2.37
2023-05-08T06:03:14.851Z,2.20
2023-05-08T06:05:41.655Z,2.20
2023-05-08T06:08:08.615Z,2.33
2023-05-08T06:10:35.543Z,2.20
2023-05-08T06:13:02.364Z,2.07
2023-05-08T06:15:29.099Z,2.10
2023-05-08T06:17:56.328Z,1.90
2023-05-08T06:20:24.407Z,1.80
2023-05-08T06:22:53.046Z,1.90
2023-05-08T06:25:20.224Z,2.00
2023-05-08T06:27:46.884Z,2.00
2023-05-08T06:30:13.666Z,1.93
2023-05-08T06:32:40.448Z,2.00
2023-05-08T06:35:07.678Z,2.10
2023-05-08T06:37:34.325Z,2.03
2023-05-08T06:40:11.536Z,1.70
2023-05-08T06:42:39.158Z,1.70
2023-05-08T06:45:06.592Z,2.17
2023-05-08T06:47:33.361Z,1.90
2023-05-08T06:50:01.158Z,1.90
2023-05-08T06:52:27.917Z,1.90
2023-05-08T06:54:54.582Z,2.00
2023-05-08T06:57:21.287Z,2.20
2023-05-08T06:59:47.949Z,1.90
2023-05-08T07:02:16.243Z,1.87
2023-05-08T07:04:44.374Z,2.00
2023-05-08T07:07:12.824Z,2.00
2023-05-08T07:09:39.774Z,1.90
2023-05-08T07:12:06.946Z,1.90
2023-05-08T07:14:33.586Z,1.87
2023-05-08T07:17:06.795Z,2.20
2023-05-08T07:19:38.094Z,2.20
2023-05-08T07:22:05.575Z,2.50
2023-05-08T07:24:33.083Z,2.10
2023-05-08T07:26:59.814Z,2.07
2023-05-08T07:29:27.055Z,2.23
2023-05-08T07:31:54.056Z,2.30
2023-05-08T07:34:21.081Z,2.30
2023-05-08T07:36:48.117Z,2.20
2023-05-08T07:39:14.846Z,2.40
2023-05-08T07:41:41.655Z,2.30
2023-05-08T07:44:08.556Z,2.10
2023-05-08T07:46:35.426Z,2.00
2023-05-08T07:49:02.144Z,1.80
2023-05-08T07:51:28.987Z,2.07
2023-05-08T07:53:55.689Z,2.47
2023-05-08T07:56:23.112Z,2.30
2023-05-08T07:58:49.826Z,2.07
2023-05-08T08:01:18.283Z,2.30
2023-05-08T08:03:46.525Z,2.33
2023-05-08T08:06:13.340Z,2.33
2023-05-08T08:08:40.488Z,2.23
2023-05-08T08:11:07.452Z,2.30
2023-05-08T08:13:34.283Z,2.17
2023-05-08T08:16:01.543Z,2.40
2023-05-08T08:18:28.631Z,2.53
2023-05-08T08:20:55.805Z,2.90
2023-05-08T08:23:22.483Z,3.07
2023-05-08T08:25:49.154Z,2.60
2023-05-08T08:28:15.806Z,2.80
2023-05-08T08:30:42.477Z,2.23
2023-05-08T08:33:09.189Z,2.60
2023-05-08T08:35:35.934Z,2.73
2023-05-08T08:38:02.581Z,3.47
2023-05-08T08:40:29.236Z,2.70
2023-05-08T08:42:55.922Z,2.50
2023-05-08T08:45:22.687Z,2.60
2023-05-08T08:47:52.483Z,2.73
2023-05-08T08:50:20.432Z,2.63
2023-05-08T08:53:01.206Z,2.20
2023-05-08T08:55:28.118Z,2.23
2023-05-08T08:58:21.588Z,2.40
2023-05-08T09:00:49.493Z,2.40
2023-05-08T09:03:16.634Z,2.10
2023-05-08T09:05:45.367Z,2.47
2023-05-08T09:08:13.157Z,2.70
2023-05-08T09:10:39.939Z,2.70
2023-05-08T09:13:06.659Z,2.60
2023-05-08T09:15:33.757Z,2.60
2023-05-08T09:18:03.946Z,2.70
2023-05-08T09:20:30.909Z,2.90
2023-05-08T09:22:58.008Z,2.57
2023-05-08T09:25:24.911Z,2.20
2023-05-08T09:27:51.654Z,2.27
2023-05-08T09:30:18.768Z,2.80
2023-05-08T09:32:45.815Z,2.50
2023-05-08T09:35:13.372Z,2.60
2023-05-08T09:37:42.447Z,2.70
2023-05-08T09:40:20.697Z,2.50
2023-05-08T09:42:48.622Z,2.40
2023-05-08T09:45:35.277Z,2.47
2023-05-08T09:48:02.159Z,2.13
2023-05-08T09:50:28.930Z,2.53
2023-05-08T09:52:55.603Z,2.50
2023-05-08T09:55:22.555Z,3.20
2023-05-08T09:57:59.521Z,2.80
2023-05-08T10:00:28.230Z,2.90
2023-05-08T10:03:04.634Z,2.73
2023-05-08T10:05:34.948Z,2.63
2023-05-08T10:08:22.028Z,2.93
2023-05-08T10:10:49.189Z,2.77
2023-05-08T10:13:16.168Z,3.10
2023-05-08T10:15:44.033Z,2.87
2023-05-08T10:18:12.284Z,2.80
2023-05-08T10:20:41.294Z,3.20
2023-05-08T10:23:11.472Z,3.03
2023-05-08T10:25:44.711Z,3.17
2023-05-08T10:28:32.973Z,2.80
2023-05-08T10:31:01.657Z,3.30
2023-05-08T10:33:31.842Z,3.50
2023-05-08T10:35:59.282Z,3.37
2023-05-08T10:38:26.127Z,3.50
2023-05-08T10:40:58.145Z,3.77
2023-05-08T10:43:25.758Z,3.13
2023-05-08T10:45:53.890Z,3.03
2023-05-08T10:48:26.786Z,2.73
2023-05-08T10:51:03.510Z,3.27
2023-05-08T10:53:36.211Z,4.03
2023-05-08T10:56:03.195Z,3.90
2023-05-08T10:58:32.378Z,3.77
2023-05-08T11:01:07.431Z,3.77
2023-05-08T11:03:50.811Z,3.77
2023-05-08T11:06:47.184Z,4.30
2023-05-08T11:09:30.639Z,3.40
2023-05-08T11:12:11.116Z,2.87
2023-05-08T11:14:41.033Z,3.03
2023-05-08T11:17:08.574Z,3.00
2023-05-08T11:19:36.213Z,2.93
2023-05-08T11:22:13.592Z,3.27
2023-05-08T11:24:59.362Z,3.07
2023-05-08T11:27:41.075Z,2.90
2023-05-08T11:30:20.945Z,3.23
2023-05-08T11:32:58.381Z,3.50
2023-05-08T11:35:46.600Z,3.63
2023-05-08T11:38:27.407Z,4.10
2023-05-08T11:40:55.179Z,4.30
2023-05-08T11:43:34.379Z,4.07
2023-05-08T11:46:15.356Z,4.13
2023-05-08T11:48:42.478Z,4.40
2023-05-08T11:51:09.674Z,3.83
2023-05-08T11:53:37.503Z,2.87
2023-05-08T11:56:04.560Z,3.97
2023-05-08T11:58:31.236Z,3.87
2023-05-08T12:00:58.115Z,4.47
2023-05-08T12:03:25.701Z,4.50
2023-05-08T12:05:56.540Z,4.70
2023-05-08T12:08:23.394Z,4.47
2023-05-08T12:10:54.420Z,4.80
2023-05-08T12:13:23.297Z,4.53
2023-05-08T12:15:53.286Z,4.07
2023-05-08T12:18:20.666Z,4.70
2023-05-08T12:20:52.309Z,4.20
2023-05-08T12:23:19.296Z,3.87
2023-05-08T12:25:45.975Z,4.43
2023-05-08T12:28:12.639Z,4.73
2023-05-08T12:30:39.321Z,4.43
2023-05-08T12:33:07.048Z,4.70
2023-05-08T12:35:34.301Z,4.17
2023-05-08T12:38:02.578Z,4.20
2023-05-08T12:40:46.406Z,3.97
2023-05-08T12:43:13.261Z,4.00
2023-05-08T12:45:42.466Z,4.27
2023-05-08T12:48:15.643Z,3.80
2023-05-08T12:50:44.491Z,4.10
2023-05-08T12:53:14.633Z,3.70
2023-05-08T12:55:52.795Z,4.57
2023-05-08T12:58:19.607Z,3.30
2023-05-08T13:00:48.594Z,3.70
2023-05-08T13:03:25.598Z,5.00
2023-05-08T13:05:53.922Z,5.10
2023-05-08T13:08:21.350Z,5.90
2023-05-08T13:10:49.919Z,5.20
2023-05-08T13:13:24.201Z,5.60
2023-05-08T13:15:52.396Z,5.30
2023-05-08T13:18:19.984Z,5.87
2023-05-08T13:20:46.748Z,5.33
2023-05-08T13:23:13.692Z,5.60
2023-05-08T13:25:41.130Z,5.57
2023-05-08T13:28:09.612Z,5.50
2023-05-08T13:30:37.158Z,5.10
2023-05-08T13:33:04.421Z,5.87
2023-05-08T13:35:32.057Z,6.10
2023-05-08T13:37:59.201Z,5.10
2023-05-08T13:40:26.388Z,7.07
2023-05-08T13:42:53.076Z,6.27
2023-05-08T13:45:19.867Z,7.30
2023-05-08T13:47:48.393Z,6.70
2023-05-08T13:50:16.512Z,6.93
2023-05-08T13:52:43.429Z,6.77
2023-05-08T13:55:12.037Z,6.90
2023-05-08T13:57:39.475Z,6.20
2023-05-08T14:00:07.222Z,6.47
2023-05-08T14:02:34.528Z,6.30
2023-05-08T14:05:01.330Z,6.13
2023-05-08T14:07:28.164Z,6.17
2023-05-08T14:09:54.901Z,6.10
2023-05-08T14:12:21.705Z,5.70
2023-05-08T14:14:48.415Z,6.10
2023-05-08T14:17:15.178Z,6.07
2023-05-08T14:19:41.905Z,5.30
2023-05-08T14:22:08.594Z,6.67
2023-05-08T14:24:35.365Z,5.73
2023-05-08T14:27:05.780Z,6.00
2023-05-08T14:29:36.034Z,5.43
2023-05-08T14:32:03.063Z,5.80
2023-05-08T14:34:29.891Z,5.10
2023-05-08T14:36:56.822Z,4.97
2023-05-08T14:39:23.578Z,5.50
2023-05-08T14:42:14.398Z,4.83
2023-05-08T14:44:37.086Z,5.10
2023-05-08T14:47:03.870Z,4.80
2023-05-08T14:49:37.541Z,5.27
2023-05-08T14:52:06.085Z,5.47
2023-05-08T14:54:33.003Z,5.00
2023-05-08T14:56:59.948Z,5.07
2023-05-08T14:59:26.688Z,5.23
2023-05-08T15:01:53.511Z,5.07
2023-05-08T15:04:20.516Z,5.17
2023-05-08T15:06:47.666Z,4.70
2023-05-08T15:09:16.291Z,4.60
2023-05-08T15:11:43.098Z,4.97
2023-05-08T15:14:10.006Z,4.67
2023-05-08T15:16:36.819Z,5.43
2023-05-08T15:19:03.513Z,5.30
2023-05-08T15:21:30.368Z,5.20
2023-05-08T15:23:57.043Z,5.40
2023-05-08T15:26:24.235Z,5.13
2023-05-08T15:28:50.948Z,5.07
2023-05-08T15:31:18.194Z,4.63
2023-05-08T15:33:45.189Z,4.90
2023-05-08T15:36:15.584Z,4.83
2023-05-08T15:38:42.706Z,4.80
2023-05-08T15:41:15.349Z,5.10
2023-05-08T15:43:45.718Z,4.70
2023-05-08T15:46:12.464Z,5.37
2023-05-08T15:48:39.440Z,4.93
2023-05-08T15:51:06.282Z,4.83
2023-05-08T15:53:34.065Z,4.93
2023-05-08T15:56:01.170Z,4.93
2023-05-08T15:58:27.859Z,5.33
2023-05-08T16:00:54.625Z,5.87
2023-05-08T16:03:21.518Z,5.00
2023-05-08T16:05:48.371Z,5.27
2023-05-08T16:08:15.577Z,4.60
2023-05-08T16:10:42.469Z,4.87
2023-05-08T16:13:09.478Z,4.70
2023-05-08T16:15:36.309Z,4.67
2023-05-08T16:18:03.169Z,4.67
2023-05-08T16:20:30.258Z,4.87
2023-05-08T16:22:57.361Z,4.73
2023-05-08T16:25:25.601Z,4.30
2023-05-08T16:27:52.603Z,4.47
2023-05-08T16:30:19.414Z,4.37
2023-05-08T16:32:46.299Z,4.07
2023-05-08T16:35:13.830Z,4.23
2023-05-08T16:37:40.887Z,4.33
2023-05-08T16:40:08.718Z,4.33
2023-05-08T16:42:36.166Z,4.40
2023-05-08T16:45:04.995Z,4.47
2023-05-08T16:47:32.083Z,4.90
2023-05-08T16:49:58.894Z,4.40
2023-05-08T16:52:25.927Z,4.63
2023-05-08T16:54:53.140Z,4.80
2023-05-08T16:57:19.978Z,4.57
2023-05-08T16:59:46.664Z,4.57
2023-05-08T17:02:18.457Z,4.73
2023-05-08T17:04:47.200Z,4.70
2023-05-08T17:07:15.273Z,4.17
2023-05-08T17:09:42.195Z,4.10
2023-05-08T17:12:09.346Z,4.40
2023-05-08T17:14:37.939Z,4.13
2023-05-08T17:17:04.711Z,4.70
2023-05-08T17:19:31.392Z,4.50
2023-05-08T17:21:59.713Z,4.27
2023-05-08T17:24:26.839Z,4.20
2023-05-08T17:26:53.550Z,4.00
2023-05-08T17:29:20.293Z,4.47
2023-05-08T17:31:47.099Z,3.83
2023-05-08T17:34:13.876Z,4.60
2023-05-08T17:36:40.737Z,4.60
2023-05-08T17:39:07.903Z,4.97
2023-05-08T17:41:34.652Z,5.00
2023-05-08T17:44:01.341Z,4.77
2023-05-08T17:46:28.019Z,4.60
2023-05-08T17:48:54.681Z,4.63
2023-05-08T17:51:21.309Z,4.37
2023-05-08T17:53:48.052Z,4.77
2023-05-08T17:56:16.315Z,4.67
2023-05-08T17:58:43.537Z,4.43
2023-05-08T18:01:10.229Z,4.77
2023-05-08T18:03:37.062Z,4.60
2023-05-08T18:06:03.855Z,4.80
2023-05-08T18:08:30.518Z,4.90
2023-05-08T18:10:57.743Z,4.80
2023-05-08T18:13:24.890Z,4.50
2023-05-08T18:15:51.774Z,5.10
2023-05-08T18:18:18.451Z,4.67
2023-05-08T18:20:45.072Z,4.53
2023-05-08T18:23:11.745Z,5.13
2023-05-08T18:25:38.515Z,4.83
2023-05-08T18:28:05.605Z,5.00
2023-05-08T18:30:36.243Z,5.20
2023-05-08T18:33:02.991Z,5.20
2023-05-08T18:35:29.731Z,5.27
2023-05-08T18:37:56.541Z,5.43
2023-05-08T18:40:23.390Z,4.87
2023-05-08T18:42:50.239Z,5.27
2023-05-08T18:45:17.046Z,5.00
2023-05-08T18:47:43.753Z,5.30
2023-05-08T18:50:11.165Z,5.10
2023-05-08T18:52:37.891Z,5.20
2023-05-08T18:55:04.878Z,4.93
2023-05-08T18:57:31.560Z,4.87
2023-05-08T18:59:58.324Z,5.43
2023-05-08T19:02:27.806Z,5.03
2023-05-08T19:04:54.785Z,5.00
2023-05-08T19:07:21.552Z,4.97
2023-05-08T19:09:48.382Z,5.20
2023-05-08T19:12:15.157Z,5.00
2023-05-08T19:14:41.819Z,5.23
2023-05-08T19:17:08.488Z,5.20
2023-05-08T19:19:35.224Z,5.13
2023-05-08T19:22:02.166Z,5.23
2023-05-08T19:24:31.281Z,5.40
2023-05-08T19:26:59.011Z,5.47
2023-05-08T19:29:25.811Z,5.60
2023-05-08T19:31:52.644Z,5.43
2023-05-08T19:34:19.398Z,5.13
2023-05-08T19:36:46.149Z,5.60
2023-05-08T19:39:13.716Z,5.20
2023-05-08T19:41:40.457Z,5.43
2023-05-08T19:44:07.135Z,5.57
2023-05-08T19:46:33.950Z,5.60
2023-05-08T19:49:00.763Z,5.63
2023-05-08T19:51:27.516Z,5.70
2023-05-08T19:53:54.229Z,5.73
2023-05-08T19:56:21.248Z,5.83
2023-05-08T19:58:47.981Z,5.63
2023-05-08T20:01:14.692Z,6.00
2023-05-08T20:03:41.410Z,5.50
2023-05-08T20:06:08.551Z,5.60
2023-05-08T20:08:35.242Z,5.60
2023-05-08T20:11:07.153Z,5.40
2023-05-08T20:13:33.834Z,5.73
2023-05-08T20:16:00.537Z,6.23
2023-05-08T20:18:27.258Z,5.70
2023-05-08T20:20:53.923Z,5.30
2023-05-08T20:23:20.663Z,5.60
2023-05-08T20:25:47.997Z,5.70
2023-05-08T20:28:15.447Z,5.87
2023-05-08T20:30:42.244Z,5.67
2023-05-08T20:33:09.061Z,5.63
2023-05-08T20:35:36.076Z,5.67
2023-05-08T20:38:02.757Z,5.30
2023-05-08T20:40:29.449Z,5.97
2023-05-08T20:42:56.137Z,5.53
2023-05-08T20:45:22.816Z,5.53
2023-05-08T20:47:49.768Z,5.40
2023-05-08T20:50:16.694Z,5.50
2023-05-08T20:52:43.488Z,6.03
2023-05-08T20:55:11.017Z,5.80
2023-05-08T20:57:38.340Z,5.83
2023-05-08T21:00:05.731Z,5.70
2023-05-08T21:02:33.810Z,6.17
2023-05-08T21:05:00.734Z,5.77
2023-05-08T21:07:27.517Z,6.00
2023-05-08T21:09:54.172Z,6.80
2023-05-08T21:12:20.853Z,6.03
2023-05-08T21:14:47.704Z,6.10
2023-05-08T21:17:14.486Z,5.90
2023-05-08T21:19:41.326Z,6.20
2023-05-08T21:22:09.274Z,6.30
2023-05-08T21:24:37.229Z,6.30
2023-05-08T21:27:03.997Z,6.07
2023-05-08T21:29:30.834Z,6.10
2023-05-08T21:31:57.676Z,6.07
2023-05-08T21:34:24.395Z,6.60
2023-05-08T21:36:51.150Z,6.50
2023-05-08T21:39:17.872Z,6.43
2023-05-08T21:41:44.829Z,6.23
2023-05-08T21:44:15.480Z,6.10
2023-05-08T21:46:42.219Z,6.17
2023-05-08T21:49:08.967Z,6.03
2023-05-08T21:51:35.633Z,6.03
2023-05-08T21:54:02.303Z,6.03
2023-05-08T21:56:29.381Z,6.23
2023-05-08T21:58:56.076Z,6.70
2023-05-08T22:01:22.777Z,6.07
2023-05-08T22:03:49.609Z,6.90
2023-05-08T22:06:16.720Z,6.60
2023-05-08T22:08:43.375Z,6.73
2023-05-08T22:11:10.340Z,6.23
2023-05-08T22:13:37.056Z,6.80
2023-05-08T22:16:04.484Z,6.47
2023-05-08T22:18:31.158Z,6.30
2023-05-08T22:20:57.876Z,6.20
2023-05-08T22:23:24.582Z,6.60
2023-05-08T22:25:51.636Z,6.60
2023-05-08T22:28:18.318Z,6.20
2023-05-08T22:30:44.985Z,6.90
2023-05-08T22:33:33.839Z,6.50
2023-05-08T22:36:01.035Z,6.47
2023-05-08T22:38:27.793Z,6.83
2023-05-08T22:40:56.499Z,6.40
2023-05-08T22:43:24.200Z,6.93
2023-05-08T22:45:50.987Z,6.70
2023-05-08T22:48:17.981Z,6.77
2023-05-08T22:50:48.142Z,6.20
2023-05-08T22:53:15.219Z,6.83
2023-05-08T22:55:42.034Z,6.70
2023-05-08T22:58:08.723Z,6.07
2023-05-08T23:00:35.392Z,6.87
2023-05-08T23:03:04.296Z,6.03
2023-05-08T23:05:31.136Z,6.23
2023-05-08T23:07:57.871Z,6.23
2023-05-08T23:10:24.848Z,6.40
2023-05-08T23:12:51.560Z,5.83
2023-05-08T23:15:18.513Z,6.47
2023-05-08T23:17:45.324Z,5.83
2023-05-08T23:20:12.326Z,5.77
2023-05-08T23:22:38.976Z,6.20
2023-05-08T23:25:06.251Z,6.17
2023-05-08T23:27:32.889Z,5.60
2023-05-08T23:29:59.566Z,6.33
2023-05-08T23:32:26.254Z,6.10
2023-05-08T23:34:52.943Z,6.50
2023-05-08T23:37:19.631Z,5.87
2023-05-08T23:39:46.306Z,6.70
2023-05-08T23:42:13.137Z,6.57
2023-05-08T23:44:39.806Z,6.70
2023-05-08T23:47:07.568Z,6.90
2023-05-08T23:49:34.820Z,6.70
2023-05-08T23:52:01.543Z,6.80
2023-05-08T23:54:28.212Z,6.83
2023-05-08T23:57:11.650Z,6.20
2023-05-08T23:59:38.310Z,6.33
